sensor_id;sensor_type;location;lat;lon;timestamp;P1;durP1;ratioP1;P2;durP2;ratioP2
37785;SDS011;23625;48.784;9.336;2023-08-21T00:01:06;12.75;;;7.85;;
37785;SDS011;23625;48.784;9.336;2023-08-21T00:03:31;9.93;;;8.13;;
37785;SDS011;23625;48.784;9.336;2023-08-21T00:05:57;13.52;;;7.35;;
37785;SDS011;23625;48.784;9.336;2023-08-21T00:08:23;11.40;;;7.47;;
37785;SDS011;23625;48.784;9.336;2023-08-21T00:10:49;13.40;;;8.25;;
37785;SDS011;23625;48.784;9.336;2023-08-21T00:13:14;21.15;;;8.40;;
37785;SDS011;23625;48.784;9.336;2023-08-21T00:15:40;14.50;;;8.18;;
37785;SDS011;23625;48.784;9.336;2023-08-21T00:18:05;14.40;;;7.57;;
37785;SDS011;23625;48.784;9.336;2023-08-21T00:20:31;15.50;;;8.63;;
37785;SDS011;23625;48.784;9.336;2023-08-21T00:22:57;12.57;;;8.55;;
37785;SDS011;23625;48.784;9.336;2023-08-21T00:25:22;19.10;;;8.73;;
37785;SDS011;23625;48.784;9.336;2023-08-21T00:27:48;16.67;;;8.10;;
37785;SDS011;23625;48.784;9.336;2023-08-21T00:30:14;21.73;;;10.02;;
37785;SDS011;23625;48.784;9.336;2023-08-21T00:32:42;12.77;;;7.18;;
37785;SDS011;23625;48.784;9.336;2023-08-21T00:35:08;14.73;;;8.02;;
37785;SDS011;23625;48.784;9.336;2023-08-21T00:37:33;17.13;;;8.43;;
37785;SDS011;23625;48.784;9.336;2023-08-21T00:39:59;14.48;;;8.40;;
37785;SDS011;23625;48.784;9.336;2023-08-21T00:42:25;12.98;;;8.40;;
37785;SDS011;23625;48.784;9.336;2023-08-21T00:44:52;16.83;;;8.43;;
37785;SDS011;23625;48.784;9.336;2023-08-21T00:47:18;16.63;;;8.05;;
37785;SDS011;23625;48.784;9.336;2023-08-21T00:49:44;14.38;;;8.40;;
37785;SDS011;23625;48.784;9.336;2023-08-21T00:52:11;16.23;;;8.50;;
37785;SDS011;23625;48.784;9.336;2023-08-21T00:54:37;17.42;;;7.80;;
37785;SDS011;23625;48.784;9.336;2023-08-21T00:57:03;15.00;;;8.30;;
37785;SDS011;23625;48.784;9.336;2023-08-21T00:59:29;15.18;;;8.32;;
37785;SDS011;23625;48.784;9.336;2023-08-21T01:01:55;17.50;;;8.10;;
37785;SDS011;23625;48.784;9.336;2023-08-21T01:04:21;18.50;;;8.70;;
37785;SDS011;23625;48.784;9.336;2023-08-21T01:06:48;15.27;;;8.00;;
37785;SDS011;23625;48.784;9.336;2023-08-21T01:09:33;14.90;;;8.50;;
37785;SDS011;23625;48.784;9.336;2023-08-21T01:14:48;12.50;;;8.60;;
37785;SDS011;23625;48.784;9.336;2023-08-21T01:17:19;13.23;;;8.63;;
37785;SDS011;23625;48.784;9.336;2023-08-21T01:19:48;13.23;;;8.05;;
37785;SDS011;23625;48.784;9.336;2023-08-21T01:22:15;12.48;;;7.43;;
37785;SDS011;23625;48.784;9.336;2023-08-21T01:24:40;13.15;;;7.55;;
37785;SDS011;23625;48.784;9.336;2023-08-21T01:27:06;14.20;;;8.30;;
37785;SDS011;23625;48.784;9.336;2023-08-21T01:29:32;16.25;;;8.88;;
37785;SDS011;23625;48.784;9.336;2023-08-21T01:32:06;15.07;;;8.88;;
37785;SDS011;23625;48.784;9.336;2023-08-21T01:34:56;22.10;;;9.13;;
37785;SDS011;23625;48.784;9.336;2023-08-21T01:37:23;13.95;;;9.30;;
37785;SDS011;23625;48.784;9.336;2023-08-21T01:39:50;17.52;;;8.70;;
37785;SDS011;23625;48.784;9.336;2023-08-21T01:42:15;17.20;;;9.00;;
37785;SDS011;23625;48.784;9.336;2023-08-21T01:44:41;19.58;;;8.82;;
37785;SDS011;23625;48.784;9.336;2023-08-21T01:47:07;15.93;;;8.57;;
37785;SDS011;23625;48.784;9.336;2023-08-21T01:49:32;17.80;;;9.50;;
37785;SDS011;23625;48.784;9.336;2023-08-21T01:51:58;15.43;;;8.98;;
37785;SDS011;23625;48.784;9.336;2023-08-21T01:54:23;16.80;;;8.80;;
37785;SDS011;23625;48.784;9.336;2023-08-21T01:56:49;17.13;;;9.68;;
37785;SDS011;23625;48.784;9.336;2023-08-21T01:59:15;14.80;;;7.97;;
37785;SDS011;23625;48.784;9.336;2023-08-21T02:01:41;14.60;;;8.88;;
37785;SDS011;23625;48.784;9.336;2023-08-21T02:04:07;17.83;;;9.20;;
37785;SDS011;23625;48.784;9.336;2023-08-21T02:06:33;13.25;;;9.23;;
37785;SDS011;23625;48.784;9.336;2023-08-21T02:08:58;15.73;;;9.57;;
37785;SDS011;23625;48.784;9.336;2023-08-21T02:11:24;14.90;;;9.05;;
37785;SDS011;23625;48.784;9.336;2023-08-21T02:13:49;14.63;;;9.65;;
37785;SDS011;23625;48.784;9.336;2023-08-21T02:16:15;16.90;;;9.30;;
37785;SDS011;23625;48.784;9.336;2023-08-21T02:18:40;16.02;;;8.70;;
37785;SDS011;23625;48.784;9.336;2023-08-21T02:21:06;12.70;;;9.25;;
37785;SDS011;23625;48.784;9.336;2023-08-21T02:23:32;15.00;;;9.43;;
37785;SDS011;23625;48.784;9.336;2023-08-21T02:25:58;16.55;;;9.32;;
37785;SDS011;23625;48.784;9.336;2023-08-21T02:28:23;16.58;;;9.50;;
37785;SDS011;23625;48.784;9.336;2023-08-21T02:30:49;17.00;;;8.77;;
37785;SDS011;23625;48.784;9.336;2023-08-21T02:33:14;16.63;;;9.45;;
37785;SDS011;23625;48.784;9.336;2023-08-21T02:35:40;12.82;;;8.85;;
37785;SDS011;23625;48.784;9.336;2023-08-21T02:38:06;16.42;;;9.45;;
37785;SDS011;23625;48.784;9.336;2023-08-21T02:40:31;13.82;;;8.80;;
37785;SDS011;23625;48.784;9.336;2023-08-21T02:42:57;17.38;;;9.25;;
37785;SDS011;23625;48.784;9.336;2023-08-21T02:45:23;18.92;;;8.63;;
37785;SDS011;23625;48.784;9.336;2023-08-21T02:47:48;11.60;;;8.75;;
37785;SDS011;23625;48.784;9.336;2023-08-21T02:50:14;14.32;;;8.70;;
37785;SDS011;23625;48.784;9.336;2023-08-21T02:52:39;12.15;;;8.43;;
37785;SDS011;23625;48.784;9.336;2023-08-21T02:55:05;11.27;;;8.15;;
37785;SDS011;23625;48.784;9.336;2023-08-21T02:57:31;13.27;;;9.00;;
37785;SDS011;23625;48.784;9.336;2023-08-21T02:59:57;16.13;;;9.10;;
37785;SDS011;23625;48.784;9.336;2023-08-21T03:02:22;12.15;;;8.48;;
37785;SDS011;23625;48.784;9.336;2023-08-21T03:04:48;19.20;;;9.30;;
37785;SDS011;23625;48.784;9.336;2023-08-21T03:07:14;13.88;;;9.02;;
37785;SDS011;23625;48.784;9.336;2023-08-21T03:09:41;17.00;;;9.00;;
37785;SDS011;23625;48.784;9.336;2023-08-21T03:12:07;12.73;;;8.50;;
37785;SDS011;23625;48.784;9.336;2023-08-21T03:14:33;16.20;;;8.85;;
37785;SDS011;23625;48.784;9.336;2023-08-21T03:16:59;12.90;;;9.10;;
37785;SDS011;23625;48.784;9.336;2023-08-21T03:19:28;15.32;;;9.57;;
37785;SDS011;23625;48.784;9.336;2023-08-21T03:21:53;21.83;;;9.20;;
37785;SDS011;23625;48.784;9.336;2023-08-21T03:24:19;13.50;;;8.77;;
37785;SDS011;23625;48.784;9.336;2023-08-21T03:26:45;14.45;;;9.20;;
37785;SDS011;23625;48.784;9.336;2023-08-21T03:29:10;14.23;;;8.73;;
37785;SDS011;23625;48.784;9.336;2023-08-21T03:31:36;16.00;;;9.07;;
37785;SDS011;23625;48.784;9.336;2023-08-21T03:34:01;13.32;;;8.32;;
37785;SDS011;23625;48.784;9.336;2023-08-21T03:36:27;16.83;;;9.00;;
37785;SDS011;23625;48.784;9.336;2023-08-21T03:38:57;16.60;;;8.27;;
37785;SDS011;23625;48.784;9.336;2023-08-21T03:41:23;17.92;;;9.00;;
37785;SDS011;23625;48.784;9.336;2023-08-21T03:43:49;11.90;;;8.45;;
37785;SDS011;23625;48.784;9.336;2023-08-21T03:46:14;14.52;;;9.10;;
37785;SDS011;23625;48.784;9.336;2023-08-21T03:48:40;13.25;;;9.07;;
37785;SDS011;23625;48.784;9.336;2023-08-21T03:51:05;15.27;;;8.32;;
37785;SDS011;23625;48.784;9.336;2023-08-21T03:53:31;14.95;;;8.95;;
37785;SDS011;23625;48.784;9.336;2023-08-21T03:55:57;11.80;;;8.82;;
37785;SDS011;23625;48.784;9.336;2023-08-21T03:58:22;15.68;;;9.32;;
37785;SDS011;23625;48.784;9.336;2023-08-21T04:00:50;14.32;;;8.55;;
37785;SDS011;23625;48.784;9.336;2023-08-21T04:03:16;15.55;;;9.82;;
37785;SDS011;23625;48.784;9.336;2023-08-21T04:05:41;16.38;;;9.52;;
37785;SDS011;23625;48.784;9.336;2023-08-21T04:08:07;11.93;;;9.38;;
37785;SDS011;23625;48.784;9.336;2023-08-21T04:10:32;13.30;;;8.63;;
37785;SDS011;23625;48.784;9.336;2023-08-21T04:12:58;17.48;;;9.48;;
37785;SDS011;23625;48.784;9.336;2023-08-21T04:15:25;16.38;;;9.10;;
37785;SDS011;23625;48.784;9.336;2023-08-21T04:17:51;13.68;;;8.88;;
37785;SDS011;23625;48.784;9.336;2023-08-21T04:20:17;15.43;;;8.57;;
37785;SDS011;23625;48.784;9.336;2023-08-21T04:22:45;14.07;;;9.32;;
37785;SDS011;23625;48.784;9.336;2023-08-21T04:25:11;20.20;;;9.32;;
37785;SDS011;23625;48.784;9.336;2023-08-21T04:27:36;18.98;;;10.00;;
37785;SDS011;23625;48.784;9.336;2023-08-21T04:30:03;22.00;;;9.88;;
37785;SDS011;23625;48.784;9.336;2023-08-21T04:32:29;12.50;;;9.18;;
37785;SDS011;23625;48.784;9.336;2023-08-21T04:34:55;15.20;;;9.55;;
37785;SDS011;23625;48.784;9.336;2023-08-21T04:37:21;19.13;;;9.75;;
37785;SDS011;23625;48.784;9.336;2023-08-21T04:39:50;13.68;;;9.73;;
37785;SDS011;23625;48.784;9.336;2023-08-21T04:42:16;17.60;;;10.48;;
37785;SDS011;23625;48.784;9.336;2023-08-21T04:44:42;14.93;;;9.25;;
37785;SDS011;23625;48.784;9.336;2023-08-21T04:49:52;14.38;;;9.05;;
37785;SDS011;23625;48.784;9.336;2023-08-21T04:52:19;25.38;;;9.52;;
37785;SDS011;23625;48.784;9.336;2023-08-21T04:54:45;15.20;;;9.85;;
37785;SDS011;23625;48.784;9.336;2023-08-21T04:57:12;17.80;;;9.30;;
37785;SDS011;23625;48.784;9.336;2023-08-21T04:59:38;12.80;;;9.02;;
37785;SDS011;23625;48.784;9.336;2023-08-21T05:02:04;13.80;;;9.48;;
37785;SDS011;23625;48.784;9.336;2023-08-21T05:04:29;15.65;;;10.23;;
37785;SDS011;23625;48.784;9.336;2023-08-21T05:06:55;21.33;;;9.52;;
37785;SDS011;23625;48.784;9.336;2023-08-21T05:09:21;16.52;;;9.15;;
37785;SDS011;23625;48.784;9.336;2023-08-21T05:11:46;13.20;;;9.27;;
37785;SDS011;23625;48.784;9.336;2023-08-21T05:14:12;14.20;;;9.48;;
37785;SDS011;23625;48.784;9.336;2023-08-21T05:16:37;19.13;;;9.38;;
37785;SDS011;23625;48.784;9.336;2023-08-21T05:19:03;17.75;;;9.35;;
37785;SDS011;23625;48.784;9.336;2023-08-21T05:21:28;13.30;;;9.10;;
37785;SDS011;23625;48.784;9.336;2023-08-21T05:23:54;14.13;;;9.50;;
37785;SDS011;23625;48.784;9.336;2023-08-21T05:26:20;13.95;;;9.27;;
37785;SDS011;23625;48.784;9.336;2023-08-21T05:28:45;17.75;;;9.57;;
37785;SDS011;23625;48.784;9.336;2023-08-21T05:31:11;15.20;;;9.25;;
37785;SDS011;23625;48.784;9.336;2023-08-21T05:33:37;13.57;;;8.77;;
37785;SDS011;23625;48.784;9.336;2023-08-21T05:36:02;14.43;;;9.18;;
37785;SDS011;23625;48.784;9.336;2023-08-21T05:38:28;17.55;;;10.50;;
37785;SDS011;23625;48.784;9.336;2023-08-21T05:40:54;15.93;;;8.88;;
37785;SDS011;23625;48.784;9.336;2023-08-21T05:43:19;15.00;;;9.35;;
37785;SDS011;23625;48.784;9.336;2023-08-21T05:45:45;14.63;;;9.40;;
37785;SDS011;23625;48.784;9.336;2023-08-21T05:48:10;15.88;;;9.85;;
37785;SDS011;23625;48.784;9.336;2023-08-21T05:50:36;19.00;;;9.93;;
37785;SDS011;23625;48.784;9.336;2023-08-21T05:53:05;13.73;;;9.77;;
37785;SDS011;23625;48.784;9.336;2023-08-21T05:55:31;20.45;;;13.32;;
37785;SDS011;23625;48.784;9.336;2023-08-21T05:57:57;61.10;;;35.65;;
37785;SDS011;23625;48.784;9.336;2023-08-21T06:00:23;25.40;;;17.05;;
37785;SDS011;23625;48.784;9.336;2023-08-21T06:02:49;14.60;;;10.50;;
37785;SDS011;23625;48.784;9.336;2023-08-21T06:05:14;23.80;;;10.93;;
37785;SDS011;23625;48.784;9.336;2023-08-21T06:07:40;14.50;;;10.07;;
37785;SDS011;23625;48.784;9.336;2023-08-21T06:10:07;15.43;;;9.25;;
37785;SDS011;23625;48.784;9.336;2023-08-21T06:12:33;19.00;;;10.70;;
37785;SDS011;23625;48.784;9.336;2023-08-21T06:14:59;19.90;;;11.02;;
37785;SDS011;23625;48.784;9.336;2023-08-21T06:17:24;16.45;;;10.30;;
37785;SDS011;23625;48.784;9.336;2023-08-21T06:19:52;15.32;;;10.30;;
37785;SDS011;23625;48.784;9.336;2023-08-21T06:22:18;15.30;;;9.65;;
37785;SDS011;23625;48.784;9.336;2023-08-21T06:24:43;15.60;;;10.27;;
37785;SDS011;23625;48.784;9.336;2023-08-21T06:27:09;19.48;;;10.05;;
37785;SDS011;23625;48.784;9.336;2023-08-21T06:29:34;15.10;;;9.82;;
37785;SDS011;23625;48.784;9.336;2023-08-21T06:32:00;21.00;;;10.27;;
37785;SDS011;23625;48.784;9.336;2023-08-21T06:34:26;15.40;;;10.43;;
37785;SDS011;23625;48.784;9.336;2023-08-21T06:36:51;17.17;;;9.32;;
37785;SDS011;23625;48.784;9.336;2023-08-21T06:39:17;20.25;;;9.50;;
37785;SDS011;23625;48.784;9.336;2023-08-21T06:41:42;14.88;;;9.27;;
37785;SDS011;23625;48.784;9.336;2023-08-21T06:44:08;15.73;;;8.80;;
37785;SDS011;23625;48.784;9.336;2023-08-21T06:46:33;16.35;;;9.50;;
37785;SDS011;23625;48.784;9.336;2023-08-21T06:49:00;15.15;;;9.82;;
37785;SDS011;23625;48.784;9.336;2023-08-21T06:51:25;16.45;;;9.80;;
37785;SDS011;23625;48.784;9.336;2023-08-21T06:53:51;21.23;;;10.43;;
37785;SDS011;23625;48.784;9.336;2023-08-21T06:56:16;14.20;;;9.40;;
37785;SDS011;23625;48.784;9.336;2023-08-21T06:58:42;12.40;;;9.38;;
37785;SDS011;23625;48.784;9.336;2023-08-21T07:01:08;12.77;;;9.38;;
37785;SDS011;23625;48.784;9.336;2023-08-21T07:03:33;15.55;;;9.13;;
37785;SDS011;23625;48.784;9.336;2023-08-21T07:05:59;19.60;;;9.32;;
37785;SDS011;23625;48.784;9.336;2023-08-21T07:08:25;19.80;;;9.50;;
37785;SDS011;23625;48.784;9.336;2023-08-21T07:10:51;20.35;;;9.18;;
37785;SDS011;23625;48.784;9.336;2023-08-21T07:13:17;15.10;;;9.98;;
37785;SDS011;23625;48.784;9.336;2023-08-21T07:15:44;14.82;;;8.70;;
37785;SDS011;23625;48.784;9.336;2023-08-21T07:18:10;18.27;;;10.60;;
37785;SDS011;23625;48.784;9.336;2023-08-21T07:20:36;14.10;;;9.48;;
37785;SDS011;23625;48.784;9.336;2023-08-21T07:23:01;19.95;;;10.07;;
37785;SDS011;23625;48.784;9.336;2023-08-21T07:25:27;13.82;;;9.10;;
37785;SDS011;23625;48.784;9.336;2023-08-21T07:27:55;15.63;;;9.18;;
37785;SDS011;23625;48.784;9.336;2023-08-21T07:30:21;17.27;;;9.75;;
37785;SDS011;23625;48.784;9.336;2023-08-21T07:32:47;15.93;;;8.88;;
37785;SDS011;23625;48.784;9.336;2023-08-21T07:35:13;21.13;;;8.70;;
37785;SDS011;23625;48.784;9.336;2023-08-21T07:37:39;17.75;;;9.55;;
37785;SDS011;23625;48.784;9.336;2023-08-21T07:40:09;15.88;;;8.18;;
37785;SDS011;23625;48.784;9.336;2023-08-21T07:42:34;12.27;;;8.13;;
37785;SDS011;23625;48.784;9.336;2023-08-21T07:45:00;13.27;;;8.60;;
37785;SDS011;23625;48.784;9.336;2023-08-21T07:47:28;12.88;;;8.95;;
37785;SDS011;23625;48.784;9.336;2023-08-21T07:49:54;16.08;;;8.63;;
37785;SDS011;23625;48.784;9.336;2023-08-21T07:52:21;14.98;;;8.23;;
37785;SDS011;23625;48.784;9.336;2023-08-21T07:54:47;17.77;;;8.20;;
37785;SDS011;23625;48.784;9.336;2023-08-21T07:57:16;14.75;;;8.25;;
37785;SDS011;23625;48.784;9.336;2023-08-21T07:59:42;12.13;;;7.28;;
37785;SDS011;23625;48.784;9.336;2023-08-21T08:02:08;12.38;;;8.40;;
37785;SDS011;23625;48.784;9.336;2023-08-21T08:04:35;16.20;;;7.85;;
37785;SDS011;23625;48.784;9.336;2023-08-21T08:07:00;11.43;;;7.90;;
37785;SDS011;23625;48.784;9.336;2023-08-21T08:09:26;11.98;;;7.55;;
37785;SDS011;23625;48.784;9.336;2023-08-21T08:11:51;16.95;;;6.85;;
37785;SDS011;23625;48.784;9.336;2023-08-21T08:14:17;16.38;;;8.00;;
37785;SDS011;23625;48.784;9.336;2023-08-21T08:16:43;16.15;;;7.40;;
37785;SDS011;23625;48.784;9.336;2023-08-21T08:19:08;21.45;;;7.95;;
37785;SDS011;23625;48.784;9.336;2023-08-21T08:21:34;11.00;;;7.05;;
37785;SDS011;23625;48.784;9.336;2023-08-21T08:24:00;16.52;;;7.50;;
37785;SDS011;23625;48.784;9.336;2023-08-21T08:26:25;11.15;;;7.50;;
37785;SDS011;23625;48.784;9.336;2023-08-21T08:28:51;11.50;;;7.63;;
37785;SDS011;23625;48.784;9.336;2023-08-21T08:31:17;9.85;;;6.43;;
37785;SDS011;23625;48.784;9.336;2023-08-21T08:33:44;13.60;;;7.50;;
37785;SDS011;23625;48.784;9.336;2023-08-21T08:36:10;11.43;;;6.88;;
37785;SDS011;23625;48.784;9.336;2023-08-21T08:38:35;14.65;;;7.10;;
37785;SDS011;23625;48.784;9.336;2023-08-21T08:41:02;10.85;;;7.13;;
37785;SDS011;23625;48.784;9.336;2023-08-21T08:43:36;10.18;;;6.78;;
37785;SDS011;23625;48.784;9.336;2023-08-21T08:46:05;11.00;;;6.30;;
37785;SDS011;23625;48.784;9.336;2023-08-21T08:48:33;16.40;;;7.63;;
37785;SDS011;23625;48.784;9.336;2023-08-21T08:50:59;10.45;;;6.70;;
37785;SDS011;23625;48.784;9.336;2023-08-21T08:53:27;16.45;;;7.47;;
37785;SDS011;23625;48.784;9.336;2023-08-21T08:55:53;16.73;;;8.20;;
37785;SDS011;23625;48.784;9.336;2023-08-21T08:58:18;14.68;;;8.20;;
37785;SDS011;23625;48.784;9.336;2023-08-21T09:00:44;13.93;;;7.82;;
37785;SDS011;23625;48.784;9.336;2023-08-21T09:03:10;10.95;;;8.15;;
37785;SDS011;23625;48.784;9.336;2023-08-21T09:05:37;12.40;;;7.68;;
37785;SDS011;23625;48.784;9.336;2023-08-21T09:10:33;15.65;;;8.15;;
37785;SDS011;23625;48.784;9.336;2023-08-21T09:13:01;13.35;;;8.48;;
37785;SDS011;23625;48.784;9.336;2023-08-21T09:15:35;12.70;;;7.80;;
37785;SDS011;23625;48.784;9.336;2023-08-21T09:18:01;20.38;;;8.32;;
37785;SDS011;23625;48.784;9.336;2023-08-21T09:20:27;14.68;;;7.47;;
37785;SDS011;23625;48.784;9.336;2023-08-21T09:22:59;10.65;;;7.70;;
37785;SDS011;23625;48.784;9.336;2023-08-21T09:25:25;12.30;;;6.95;;
37785;SDS011;23625;48.784;9.336;2023-08-21T09:27:51;12.98;;;8.27;;
37785;SDS011;23625;48.784;9.336;2023-08-21T09:30:18;9.75;;;7.47;;
37785;SDS011;23625;48.784;9.336;2023-08-21T09:32:57;16.73;;;8.80;;
37785;SDS011;23625;48.784;9.336;2023-08-21T09:35:25;14.35;;;7.65;;
37785;SDS011;23625;48.784;9.336;2023-08-21T09:37:51;11.82;;;8.48;;
37785;SDS011;23625;48.784;9.336;2023-08-21T09:40:20;12.70;;;8.30;;
37785;SDS011;23625;48.784;9.336;2023-08-21T09:42:51;10.98;;;7.80;;
37785;SDS011;23625;48.784;9.336;2023-08-21T09:45:24;11.38;;;7.55;;
37785;SDS011;23625;48.784;9.336;2023-08-21T09:47:51;16.02;;;7.10;;
37785;SDS011;23625;48.784;9.336;2023-08-21T09:50:21;13.85;;;7.63;;
37785;SDS011;23625;48.784;9.336;2023-08-21T09:52:47;15.32;;;6.53;;
37785;SDS011;23625;48.784;9.336;2023-08-21T09:55:14;9.52;;;6.95;;
37785;SDS011;23625;48.784;9.336;2023-08-21T09:57:40;13.45;;;6.70;;
37785;SDS011;23625;48.784;9.336;2023-08-21T10:00:06;10.55;;;6.82;;
37785;SDS011;23625;48.784;9.336;2023-08-21T10:02:51;12.63;;;6.93;;
37785;SDS011;23625;48.784;9.336;2023-08-21T10:05:19;13.85;;;6.80;;
37785;SDS011;23625;48.784;9.336;2023-08-21T10:07:46;11.45;;;6.78;;
37785;SDS011;23625;48.784;9.336;2023-08-21T10:10:13;15.80;;;6.30;;
37785;SDS011;23625;48.784;9.336;2023-08-21T10:12:39;14.98;;;6.35;;
37785;SDS011;23625;48.784;9.336;2023-08-21T10:15:06;11.43;;;6.22;;
37785;SDS011;23625;48.784;9.336;2023-08-21T10:17:34;10.20;;;6.25;;
37785;SDS011;23625;48.784;9.336;2023-08-21T10:20:04;15.15;;;6.47;;
37785;SDS011;23625;48.784;9.336;2023-08-21T10:22:44;12.20;;;6.35;;
37785;SDS011;23625;48.784;9.336;2023-08-21T10:25:14;12.68;;;6.60;;
37785;SDS011;23625;48.784;9.336;2023-08-21T10:28:05;10.07;;;6.15;;
37785;SDS011;23625;48.784;9.336;2023-08-21T10:30:31;15.93;;;6.32;;
37785;SDS011;23625;48.784;9.336;2023-08-21T10:32:57;13.90;;;6.07;;
37785;SDS011;23625;48.784;9.336;2023-08-21T10:35:33;10.63;;;6.13;;
37785;SDS011;23625;48.784;9.336;2023-08-21T10:38:06;10.13;;;6.07;;
37785;SDS011;23625;48.784;9.336;2023-08-21T10:40:36;8.93;;;6.07;;
37785;SDS011;23625;48.784;9.336;2023-08-21T10:43:02;9.25;;;5.45;;
37785;SDS011;23625;48.784;9.336;2023-08-21T10:45:28;10.95;;;5.80;;
37785;SDS011;23625;48.784;9.336;2023-08-21T10:47:58;10.63;;;5.68;;
37785;SDS011;23625;48.784;9.336;2023-08-21T10:50:24;9.50;;;5.43;;
37785;SDS011;23625;48.784;9.336;2023-08-21T10:52:51;11.23;;;5.53;;
37785;SDS011;23625;48.784;9.336;2023-08-21T10:55:18;9.82;;;5.50;;
37785;SDS011;23625;48.784;9.336;2023-08-21T10:57:45;9.73;;;5.47;;
37785;SDS011;23625;48.784;9.336;2023-08-21T11:00:15;11.88;;;6.20;;
37785;SDS011;23625;48.784;9.336;2023-08-21T11:02:43;10.90;;;5.10;;
37785;SDS011;23625;48.784;9.336;2023-08-21T11:05:10;8.95;;;5.93;;
37785;SDS011;23625;48.784;9.336;2023-08-21T11:07:46;10.00;;;5.85;;
37785;SDS011;23625;48.784;9.336;2023-08-21T11:10:17;6.72;;;5.68;;
37785;SDS011;23625;48.784;9.336;2023-08-21T11:12:50;10.15;;;5.45;;
37785;SDS011;23625;48.784;9.336;2023-08-21T11:15:17;8.05;;;5.50;;
37785;SDS011;23625;48.784;9.336;2023-08-21T11:17:50;10.65;;;5.30;;
37785;SDS011;23625;48.784;9.336;2023-08-21T11:20:19;10.55;;;5.68;;
37785;SDS011;23625;48.784;9.336;2023-08-21T11:22:45;14.88;;;5.90;;
37785;SDS011;23625;48.784;9.336;2023-08-21T11:25:11;11.05;;;5.72;;
37785;SDS011;23625;48.784;9.336;2023-08-21T11:27:37;9.10;;;6.05;;
37785;SDS011;23625;48.784;9.336;2023-08-21T11:30:02;10.25;;;5.65;;
37785;SDS011;23625;48.784;9.336;2023-08-21T11:32:29;9.63;;;5.63;;
37785;SDS011;23625;48.784;9.336;2023-08-21T11:34:55;12.13;;;5.97;;
37785;SDS011;23625;48.784;9.336;2023-08-21T11:37:23;8.25;;;5.30;;
37785;SDS011;23625;48.784;9.336;2023-08-21T11:39:50;8.50;;;5.35;;
37785;SDS011;23625;48.784;9.336;2023-08-21T11:42:20;12.70;;;6.68;;
37785;SDS011;23625;48.784;9.336;2023-08-21T11:47:16;10.25;;;5.80;;
37785;SDS011;23625;48.784;9.336;2023-08-21T11:49:43;12.38;;;6.57;;
37785;SDS011;23625;48.784;9.336;2023-08-21T11:52:12;12.93;;;5.35;;
37785;SDS011;23625;48.784;9.336;2023-08-21T11:54:38;11.55;;;6.40;;
37785;SDS011;23625;48.784;9.336;2023-08-21T11:57:12;8.70;;;5.60;;
37785;SDS011;23625;48.784;9.336;2023-08-21T11:59:39;11.90;;;5.55;;
37785;SDS011;23625;48.784;9.336;2023-08-21T12:02:09;8.57;;;6.05;;
37785;SDS011;23625;48.784;9.336;2023-08-21T12:04:35;11.23;;;6.15;;
37785;SDS011;23625;48.784;9.336;2023-08-21T12:07:00;9.82;;;5.80;;
37785;SDS011;23625;48.784;9.336;2023-08-21T12:09:26;9.25;;;6.20;;
37785;SDS011;23625;48.784;9.336;2023-08-21T12:11:52;10.15;;;5.65;;
37785;SDS011;23625;48.784;9.336;2023-08-21T12:14:17;15.85;;;5.97;;
37785;SDS011;23625;48.784;9.336;2023-08-21T12:16:43;10.65;;;5.88;;
37785;SDS011;23625;48.784;9.336;2023-08-21T12:19:09;17.50;;;6.30;;
37785;SDS011;23625;48.784;9.336;2023-08-21T12:21:36;11.23;;;6.15;;
37785;SDS011;23625;48.784;9.336;2023-08-21T12:24:03;10.32;;;5.38;;
37785;SDS011;23625;48.784;9.336;2023-08-21T12:26:30;9.43;;;5.90;;
37785;SDS011;23625;48.784;9.336;2023-08-21T12:28:56;10.10;;;6.68;;
37785;SDS011;23625;48.784;9.336;2023-08-21T12:31:21;11.07;;;6.15;;
37785;SDS011;23625;48.784;9.336;2023-08-21T12:33:47;17.75;;;5.55;;
37785;SDS011;23625;48.784;9.336;2023-08-21T12:36:12;8.90;;;5.53;;
37785;SDS011;23625;48.784;9.336;2023-08-21T12:38:38;10.95;;;5.50;;
37785;SDS011;23625;48.784;9.336;2023-08-21T12:41:03;11.73;;;5.78;;
37785;SDS011;23625;48.784;9.336;2023-08-21T12:43:30;12.65;;;5.68;;
37785;SDS011;23625;48.784;9.336;2023-08-21T12:45:56;11.88;;;6.20;;
37785;SDS011;23625;48.784;9.336;2023-08-21T12:48:21;13.88;;;5.57;;
37785;SDS011;23625;48.784;9.336;2023-08-21T12:50:47;7.75;;;5.53;;
37785;SDS011;23625;48.784;9.336;2023-08-21T12:53:13;10.93;;;6.25;;
37785;SDS011;23625;48.784;9.336;2023-08-21T12:55:38;10.95;;;5.95;;
37785;SDS011;23625;48.784;9.336;2023-08-21T12:58:04;12.35;;;6.20;;
37785;SDS011;23625;48.784;9.336;2023-08-21T13:00:31;8.68;;;5.65;;
37785;SDS011;23625;48.784;9.336;2023-08-21T13:02:57;9.23;;;6.20;;
37785;SDS011;23625;48.784;9.336;2023-08-21T13:05:23;9.32;;;6.05;;
37785;SDS011;23625;48.784;9.336;2023-08-21T13:07:48;8.95;;;5.90;;
37785;SDS011;23625;48.784;9.336;2023-08-21T13:10:14;9.35;;;5.50;;
37785;SDS011;23625;48.784;9.336;2023-08-21T13:12:39;10.73;;;5.68;;
37785;SDS011;23625;48.784;9.336;2023-08-21T13:15:05;7.45;;;5.22;;
37785;SDS011;23625;48.784;9.336;2023-08-21T13:17:32;9.20;;;5.90;;
37785;SDS011;23625;48.784;9.336;2023-08-21T13:19:59;13.45;;;6.22;;
37785;SDS011;23625;48.784;9.336;2023-08-21T13:22:24;8.40;;;5.53;;
37785;SDS011;23625;48.784;9.336;2023-08-21T13:24:50;10.65;;;5.50;;
37785;SDS011;23625;48.784;9.336;2023-08-21T13:27:15;12.57;;;6.47;;
37785;SDS011;23625;48.784;9.336;2023-08-21T13:29:41;9.40;;;5.18;;
37785;SDS011;23625;48.784;9.336;2023-08-21T13:32:06;7.97;;;5.38;;
37785;SDS011;23625;48.784;9.336;2023-08-21T13:34:32;13.00;;;5.80;;
37785;SDS011;23625;48.784;9.336;2023-08-21T13:36:57;10.90;;;5.15;;
37785;SDS011;23625;48.784;9.336;2023-08-21T13:39:23;9.98;;;5.28;;
37785;SDS011;23625;48.784;9.336;2023-08-21T13:41:51;11.48;;;5.13;;
37785;SDS011;23625;48.784;9.336;2023-08-21T13:44:17;9.80;;;4.97;;
37785;SDS011;23625;48.784;9.336;2023-08-21T13:46:42;11.88;;;5.88;;
37785;SDS011;23625;48.784;9.336;2023-08-21T13:49:08;9.02;;;5.63;;
37785;SDS011;23625;48.784;9.336;2023-08-21T13:51:34;11.43;;;5.63;;
37785;SDS011;23625;48.784;9.336;2023-08-21T13:54:00;9.77;;;5.28;;
37785;SDS011;23625;48.784;9.336;2023-08-21T13:56:25;11.15;;;5.47;;
37785;SDS011;23625;48.784;9.336;2023-08-21T13:58:51;13.90;;;5.80;;
37785;SDS011;23625;48.784;9.336;2023-08-21T14:01:16;7.35;;;5.35;;
37785;SDS011;23625;48.784;9.336;2023-08-21T14:03:42;10.63;;;5.60;;
37785;SDS011;23625;48.784;9.336;2023-08-21T14:06:08;10.32;;;4.78;;
37785;SDS011;23625;48.784;9.336;2023-08-21T14:08:36;7.78;;;5.15;;
37785;SDS011;23625;48.784;9.336;2023-08-21T14:11:02;12.88;;;5.32;;
37785;SDS011;23625;48.784;9.336;2023-08-21T14:13:28;12.48;;;5.05;;
37785;SDS011;23625;48.784;9.336;2023-08-21T14:15:53;14.73;;;5.00;;
37785;SDS011;23625;48.784;9.336;2023-08-21T14:18:19;10.77;;;4.97;;
37785;SDS011;23625;48.784;9.336;2023-08-21T14:20:45;11.38;;;5.47;;
37785;SDS011;23625;48.784;9.336;2023-08-21T14:23:10;13.15;;;5.15;;
37785;SDS011;23625;48.784;9.336;2023-08-21T14:25:36;12.02;;;5.05;;
37785;SDS011;23625;48.784;9.336;2023-08-21T14:28:02;9.50;;;5.07;;
37785;SDS011;23625;48.784;9.336;2023-08-21T14:30:28;10.07;;;6.05;;
37785;SDS011;23625;48.784;9.336;2023-08-21T14:32:54;11.48;;;4.95;;
37785;SDS011;23625;48.784;9.336;2023-08-21T14:35:20;10.13;;;5.20;;
37785;SDS011;23625;48.784;9.336;2023-08-21T14:37:45;7.57;;;4.70;;
37785;SDS011;23625;48.784;9.336;2023-08-21T14:40:11;12.13;;;5.57;;
37785;SDS011;23625;48.784;9.336;2023-08-21T14:42:37;11.95;;;5.30;;